Time;durP1;ratioP1;P1;durP2;ratioP2;P2;SDS_P1;SDS_P2;PMS_P1;PMS_P2;Temp;Humidity;BMP_temperature;BMP_pressure;BME280_temperature;BME280_humidity;BME280_pressure;Samples;Min_cycle;Max_cycle;Signal;HPM_P1;HPM_P2
2022/11/17 00:00:42;;;;;;;37.65;24.52;;;;;;;12.02;76.02;99944.72;4882403;29;20302;-79
2022/11/17 00:03:20;;;;;;;31.98;22.48;;;;;;;12.40;75.79;99998.38;4892361;29;20064;-79
2022/11/17 00:05:46;;;;;;;37.25;23.60;;;;;;;12.23;76.03;99986.84;4900491;29;20163;-75
2022/11/17 00:08:13;;;;;;;33.35;23.38;;;;;;;12.31;75.38;99992.22;4895690;29;20052;-77
2022/11/17 00:10:40;;;;;;;34.60;23.83;;;;;;;12.34;75.42;100001.69;4895931;29;20055;-77
2022/11/17 00:15:58;;;;;;;35.70;24.20;;;;;;;12.24;75.52;99982.38;4896483;29;20258;-79
2022/11/17 00:21:22;;;;;;;39.03;23.63;;;;;;;12.33;75.89;99978.72;4878188;29;20059;-79
2022/11/17 00:23:49;;;;;;;37.80;23.70;;;;;;;12.18;76.46;99958.09;4893155;29;20091;-79
2022/11/17 00:26:25;;;;;;;35.83;24.05;;;;;;;12.19;76.78;99959.75;4872841;29;20313;-77
2022/11/17 00:28:53;;;;;;;39.97;24.92;;;;;;;12.23;76.63;99972.72;4892241;29;20080;-79
2022/11/17 00:34:21;;;;;;;36.90;24.58;;;;;;;11.79;76.44;99904.53;4877029;29;20461;-79
2022/11/17 00:36:52;;;;;;;34.28;24.17;;;;;;;12.28;76.47;99981.91;4876683;29;20064;-80
2022/11/17 00:39:21;;;;;;;;;;;;;;;12.21;76.67;99980.88;4878183;29;20268;-79
2022/11/17 00:41:48;;;;;;;37.00;24.42;;;;;;;12.27;76.26;99987.38;4892112;29;19930;-80
2022/11/17 00:44:15;;;;;;;41.70;26.42;;;;;;;12.17;76.48;99977.69;4875752;29;20068;-79
2022/11/17 00:46:45;;;;;;;41.20;25.80;;;;;;;12.20;76.49;99973.88;4893065;29;20087;-80
2022/11/17 00:49:25;;;;;;;41.08;26.65;;;;;;;12.02;76.01;99934.09;4890503;29;20295;-80
2022/11/17 00:51:52;;;;;;;42.17;26.95;;;;;;;11.76;76.42;99888.94;4896147;29;20161;-79
2022/11/17 00:54:19;;;;;;;48.95;27.35;;;;;;;12.19;76.02;99967.72;4911184;28;20058;-79
2022/11/17 00:56:47;;;;;;;41.58;26.30;;;;;;;12.19;76.24;99975.72;4905163;29;20626;-79
2022/11/17 00:59:16;;;;;;;44.25;26.00;;;;;;;11.67;76.01;99898.69;4900010;29;20051;-79
2022/11/17 01:01:48;;;;;;;43.78;27.23;;;;;;;12.11;76.74;99981.00;4912111;29;20573;-79
2022/11/17 01:04:15;;;;;;;45.13;29.33;;;;;;;12.15;76.70;99981.50;4899372;29;20142;-80
2022/11/17 01:06:47;;;;;;;39.30;25.88;;;;;;;12.11;76.90;99977.50;4898069;29;20466;-80
2022/11/17 01:09:20;;;;;;;41.25;27.52;;;;;;;12.10;77.59;99974.00;4898803;29;20058;-77
2022/11/17 01:11:48;;;;;;;41.40;28.35;;;;;;;12.07;77.27;99969.03;4895133;29;20553;-78
2022/11/17 01:14:24;;;;;;;40.53;26.63;;;;;;;11.85;77.62;99957.09;4891321;29;20897;-77
2022/11/17 01:16:52;;;;;;;39.45;25.73;;;;;;;11.89;77.34;99963.81;4912528;29;20081;-77
2022/11/17 01:19:19;;;;;;;43.13;25.83;;;;;;;11.77;77.94;99965.88;4898981;29;20138;-79
2022/11/17 01:21:47;;;;;;;34.42;24.75;;;;;;;11.83;77.46;99974.22;4900152;29;21037;-79
2022/11/17 01:24:15;;;;;;;40.88;25.73;;;;;;;11.70;77.83;99946.25;4895465;29;20590;-78
2022/11/17 01:26:43;;;;;;;37.63;24.90;;;;;;;11.80;78.40;99958.59;4895079;29;20052;-79
2022/11/17 01:29:13;;;;;;;36.38;25.77;;;;;;;11.59;78.32;99929.75;4896367;28;20191;-78
2022/11/17 01:31:45;;;;;;;41.58;26.02;;;;;;;11.61;78.28;99936.56;4897538;29;20134;-79
2022/11/17 01:34:15;;;;;;;37.03;26.13;;;;;;;11.11;78.63;99865.56;4890951;29;20055;-79
2022/11/17 01:39:30;;;;;;;36.70;24.83;;;;;;;11.45;78.28;99949.75;4883811;29;20044;-79
2022/11/17 01:42:02;;;;;;;35.67;24.90;;;;;;;11.05;78.67;99912.19;4907699;28;20048;-79
2022/11/17 01:45:05;;;;;;;38.10;25.40;;;;;;;11.30;79.45;99965.47;4891944;29;20174;-79
2022/11/17 01:47:39;;;;;;;40.58;27.23;;;;;;;11.34;79.50;99954.38;4896361;29;20735;-78
2022/11/17 01:50:14;;;;;;;41.80;26.77;;;;;;;11.27;79.24;99933.91;4896848;29;20056;-76
2022/11/17 01:52:42;;;;;;;34.75;25.00;;;;;;;11.34;79.63;99941.06;4898215;29;20460;-78
2022/11/17 01:55:14;;;;;;;38.15;25.92;;;;;;;11.33;79.94;99939.44;4897280;29;20093;-79
2022/11/17 01:58:07;;;;;;;37.88;26.27;;;;;;;11.34;80.14;99938.41;4897635;29;20066;-79
2022/11/17 02:00:34;;;;;;;41.63;26.38;;;;;;;11.42;80.50;99940.28;4899086;29;20909;-78
2022/11/17 02:03:01;;;;;;;41.25;25.02;;;;;;;11.33;79.47;99904.88;4898376;29;20203;-78
2022/11/17 02:05:33;;;;;;;36.33;24.23;;;;;;;11.50;78.09;99928.84;4895935;29;20143;-78
2022/11/17 02:08:04;;;;;;;37.03;25.05;;;;;;;11.39;79.15;99929.97;4895397;29;20059;-79
2022/11/17 02:10:33;;;;;;;44.50;26.98;;;;;;;11.20;78.85;99924.88;4879286;29;20147;-77
2022/11/17 02:13:00;;;;;;;48.40;26.13;;;;;;;11.13;79.03;99941.44;4879884;29;20091;-78
2022/11/17 02:15:30;;;;;;;39.10;26.30;;;;;;;11.07;79.14;99947.38;4877522;29;20056;-77
2022/11/17 02:17:58;;;;;;;38.92;25.90;;;;;;;10.93;79.48;99950.59;4875644;29;20052;-79
2022/11/17 02:20:46;;;;;;;39.88;25.63;;;;;;;10.77;80.40;99918.59;4893528;29;20063;-80
2022/11/17 02:23:13;;;;;;;39.53;25.65;;;;;;;10.95;80.18;99942.47;4895256;29;20056;-79
2022/11/17 02:25:54;;;;;;;38.90;26.45;;;;;;;10.69;80.08;99879.56;4894347;29;20391;-80
2022/11/17 02:28:27;;;;;;;36.17;24.58;;;;;;;11.08;80.13;99933.09;4895117;29;20121;-76
2022/11/17 02:31:15;;;;;;;38.00;25.58;;;;;;;11.02;79.72;99922.25;4879213;29;20049;-80
2022/11/17 02:34:10;;;;;;;40.50;25.38;;;;;;;10.99;80.02;99927.91;4887390;29;20146;-78
2022/11/17 02:36:56;;;;;;;38.10;26.00;;;;;;;10.56;80.63;99865.84;4894598;29;20052;-75
2022/11/17 02:39:52;;;;;;;39.17;26.27;;;;;;;10.79;79.90;99920.13;4897545;29;20410;-79
2022/11/17 02:45:41;;;;;;;40.58;26.13;;;;;;;10.62;80.60;99943.03;4894781;29;20465;-78
2022/11/17 02:48:24;;;;;;;39.92;27.02;;;;;;;10.51;81.22;99934.47;4891998;29;20056;-75
2022/11/17 02:50:52;;;;;;;41.40;26.38;;;;;;;10.48;80.95;99936.47;4889920;29;20422;-79
2022/11/17 02:53:23;;;;;;;39.13;26.20;;;;;;;10.36;81.14;99921.75;4895186;29;20068;-77
2022/11/17 02:55:51;;;;;;;43.58;27.30;;;;;;;10.48;81.17;99944.44;4895184;29;20494;-78
2022/11/17 02:58:18;;;;;;;41.95;26.55;;;;;;;10.46;81.66;99927.84;4892650;29;20562;-79
2022/11/17 03:01:06;;;;;;;42.03;26.10;;;;;;;9.84;81.71;99815.47;4904633;29;20059;-78
2022/11/17 03:03:57;;;;;;;38.55;25.75;;;;;;;10.52;80.91;99925.53;4925860;29;20054;-79
2022/11/17 03:06:34;;;;;;;42.47;26.40;;;;;;;10.53;80.38;99935.16;4915929;29;20079;-78
2022/11/17 03:09:20;;;;;;;37.33;25.67;;;;;;;10.43;80.91;99944.03;4914201;29;20056;-77
2022/11/17 03:12:15;;;;;;;42.60;27.45;;;;;;;10.38;81.20;99943.66;4909524;29;20062;-78
2022/11/17 03:15:09;;;;;;;41.38;26.55;;;;;;;10.31;81.48;99939.94;4848929;29;20057;-78
2022/11/17 03:18:08;;;;;;;45.78;25.95;;;;;;;10.33;81.84;99953.88;4830182;29;20718;-80
2022/11/17 03:20:56;;;;;;;40.25;27.42;;;;;;;10.17;81.92;99929.81;4848034;29;20520;-79
2022/11/17 03:23:55;;;;;;;37.78;25.33;;;;;;;10.37;81.65;99971.19;4842423;29;20704;-79
2022/11/17 03:26:32;;;;;;;39.53;26.05;;;;;;;9.50;81.70;99823.25;4838902;29;20258;-78
2022/11/17 03:29:08;;;;;;;39.15;26.25;;;;;;;10.01;82.19;99906.63;4832140;29;20395;-77
2022/11/17 03:31:37;;;;;;;40.70;26.85;;;;;;;10.26;81.33;99937.69;4855470;29;20122;-77
2022/11/17 03:34:08;;;;;;;46.63;27.48;;;;;;;10.31;81.87;99929.31;4848859;29;20430;-78
2022/11/17 03:36:44;;;;;;;40.83;26.13;;;;;;;10.35;81.84;99940.47;4848541;29;20463;-78
2022/11/17 03:39:35;;;;;;;42.67;27.40;;;;;;;10.23;81.68;99926.56;4852141;29;20163;-78
2022/11/17 03:42:23;;;;;;;41.63;27.83;;;;;;;10.21;81.85;99936.50;4852409;29;20597;-78
2022/11/17 03:45:14;;;;;;;42.78;27.65;;;;;;;10.26;81.25;99966.88;4868784;29;20132;-77
2022/11/17 03:47:43;;;;;;;41.35;26.55;;;;;;;9.72;81.27;99890.91;4868045;29;20508;-77
2022/11/17 03:50:21;;;;;;;44.17;28.38;;;;;;;10.03;81.99;99937.31;4875195;29;20103;-78
2022/11/17 03:52:52;;;;;;;43.05;26.35;;;;;;;9.76;82.52;99889.63;4863705;29;20494;-78
2022/11/17 03:55:25;;;;;;;41.78;26.17;;;;;;;10.15;81.93;99955.69;4864911;29;20604;-78
2022/11/17 03:57:56;;;;;;;43.58;27.65;;;;;;;9.87;81.81;99873.50;4872156;29;20063;-77
2022/11/17 04:00:22;;;;;;;46.15;28.20;;;;;;;9.87;81.64;99877.97;4876051;29;20323;-78
2022/11/17 04:02:54;;;;;;;42.10;26.33;;;;;;;10.31;81.27;99955.03;4855856;29;20593;-77
2022/11/17 04:05:29;;;;;;;42.92;27.85;;;;;;;10.18;81.28;99940.28;4870227;29;20322;-78
2022/11/17 04:08:02;;;;;;;48.35;27.35;;;;;;;10.28;81.27;99977.38;4866878;29;20811;-76
2022/11/17 04:10:30;;;;;;;47.00;28.95;;;;;;;9.61;81.65;99889.25;4879836;29;20150;-76
2022/11/17 04:15:57;;;;;;;45.35;28.15;;;;;;;10.05;81.77;99991.03;4870555;29;20108;-77
2022/11/17 04:18:25;;;;;;;45.60;26.93;;;;;;;9.98;82.40;99982.00;4879220;29;20345;-77
2022/11/17 04:20:57;;;;;;;41.08;27.98;;;;;;;9.91;82.50;99970.31;4877294;29;20310;-78
2022/11/17 04:23:33;;;;;;;43.60;27.80;;;;;;;10.03;82.78;99973.59;4881289;29;20369;-78
2022/11/17 04:28:56;;;;;;;45.42;27.00;;;;;;;10.02;83.12;99956.88;4883096;29;20457;-78
2022/11/17 04:31:34;;;;;;;52.58;28.20;;;;;;;10.12;82.60;99961.25;4865999;29;20514;-78
2022/11/17 04:34:03;;;;;;;44.30;27.08;;;;;;;10.06;81.90;99947.63;4885547;29;20179;-78
2022/11/17 04:36:34;;;;;;;41.42;26.77;;;;;;;10.17;82.71;99961.63;4865199;29;20270;-77
2022/11/17 04:39:02;;;;;;;45.45;27.50;;;;;;;10.10;82.45;99945.50;4888073;29;20075;-77
2022/11/17 04:44:15;;;;;;;46.30;26.88;;;;;;;10.10;81.88;99942.00;4904114;29;20586;-78
2022/11/17 04:46:44;;;;;;;52.47;27.45;;;;;;;10.21;81.46;99976.28;4883085;29;20055;-78
2022/11/17 04:49:16;;;;;;;42.20;27.60;;;;;;;10.00;81.92;99957.97;4856535;29;20297;-77
2022/11/17 04:51:44;;;;;;;55.90;29.80;;;;;;;9.83;82.24;99943.72;4888743;29;20055;-77
2022/11/17 04:54:19;;;;;;;45.25;28.35;;;;;;;10.00;82.30;99985.34;4851889;29;20197;-78
2022/11/17 04:56:55;;;;;;;61.85;28.52;;;;;;;10.00;82.40;99976.53;4855517;29;20516;-78
2022/11/17 04:59:27;;;;;;;52.35;30.45;;;;;;;10.00;82.58;99979.19;4849182;29;20413;-78
2022/11/17 05:02:01;;;;;;;40.50;26.75;;;;;;;9.89;82.11;99982.88;4857134;29;20259;-77
2022/11/17 05:07:23;;;;;;;46.58;27.73;;;;;;;9.71;82.70;99974.03;4869760;29;20086;-81
2022/11/17 05:09:52;;;;;;;51.92;30.95;;;;;;;9.79;83.07;100005.97;4880906;29;20055;-79
2022/11/17 05:17:03;;;;;;;46.63;28.17;;;;;;;9.90;83.51;100026.97;4858883;29;20497;-78
2022/11/17 05:18:08;;;;;;;46.85;26.90;;;;;;;9.83;83.66;99999.38;4847687;29;20382;-79
2022/11/17 05:20:34;;;;;;;49.70;28.17;;;;;;;10.05;83.21;100022.88;4883106;29;20410;-78
2022/11/17 05:25:47;;;;;;;51.55;28.35;;;;;;;10.00;82.79;99984.50;4880023;29;20271;-79
2022/11/17 05:28:13;;;;;;;51.58;28.77;;;;;;;10.07;82.80;99990.88;4884820;29;20489;-79
2022/11/17 05:30:41;;;;;;;48.25;28.58;;;;;;;10.13;82.37;100014.16;4875395;29;20118;-78
2022/11/17 05:33:23;;;;;;;55.75;30.38;;;;;;;10.21;82.86;100003.63;4870951;29;20521;-78
2022/11/17 05:35:57;;;;;;;51.03;29.02;;;;;;;10.22;82.91;99996.53;4856322;29;20082;-77
2022/11/17 05:38:24;;;;;;;42.45;28.20;;;;;;;10.19;82.28;99964.97;4868934;29;20213;-79
2022/11/17 05:40:50;;;;;;;56.60;29.55;;;;;;;10.28;82.60;99961.47;4865878;29;20144;-79
2022/11/17 05:43:17;;;;;;;55.78;30.02;;;;;;;10.33;82.54;99943.28;4874136;29;20055;-79
2022/11/17 05:45:44;;;;;;;52.72;29.90;;;;;;;10.36;82.38;99958.06;4876928;29;20579;-79
2022/11/17 05:48:16;;;;;;;53.67;31.13;;;;;;;9.93;82.53;99898.59;4864824;29;20583;-79
2022/11/17 05:50:43;;;;;;;51.20;29.65;;;;;;;10.36;82.36;99958.06;4870466;29;20052;-78
2022/11/17 05:53:10;;;;;;;46.85;28.88;;;;;;;10.32;82.29;99957.53;4874804;29;20142;-80
2022/11/17 05:55:37;;;;;;;47.35;29.45;;;;;;;10.34;81.87;99960.88;4881197;29;20040;-80
2022/11/17 05:58:11;;;;;;;50.08;30.85;;;;;;;10.05;82.58;99910.66;4854530;29;20494;-79
2022/11/17 06:00:41;;;;;;;47.28;30.00;;;;;;;10.35;82.09;99967.00;4877818;29;20587;-79
2022/11/17 06:03:17;;;;;;;55.55;30.27;;;;;;;10.05;81.98;99942.47;4853519;29;20359;-77
2022/11/17 06:05:50;;;;;;;51.25;30.02;;;;;;;10.08;82.57;99941.34;4863630;29;20695;-78
2022/11/17 06:08:28;;;;;;;51.75;31.30;;;;;;;10.06;83.03;99942.31;4843930;29;20273;-79
2022/11/17 06:11:04;;;;;;;51.05;29.63;;;;;;;10.18;82.90;99971.28;4848317;29;20486;-78
2022/11/17 06:13:45;;;;;;;54.22;30.15;;;;;;;9.43;82.88;99852.13;4828813;29;20517;-79
2022/11/17 06:16:20;;;;;;;59.33;33.25;;;;;;;10.08;83.01;99946.66;4863234;29;20059;-78
2022/11/17 06:18:53;;;;;;;56.65;33.65;;;;;;;10.19;83.30;99962.31;4846163;29;20214;-78
2022/11/17 06:21:25;;;;;;;52.45;30.98;;;;;;;10.10;83.14;99940.22;4864556;28;20051;-80
2022/11/17 06:24:20;;;;;;;51.17;29.60;;;;;;;10.19;83.52;99951.72;4826842;29;20052;-79
2022/11/17 06:27:08;;;;;;;52.55;30.00;;;;;;;9.98;83.08;99925.50;4840918;29;20047;-79
2022/11/17 06:29:41;;;;;;;55.97;31.92;;;;;;;10.30;83.43;99972.78;4849117;29;20392;-79
2022/11/17 06:32:13;;;;;;;54.22;30.10;;;;;;;10.34;84.28;99970.63;4875189;29;20044;-78
2022/11/17 06:34:41;;;;;;;52.70;31.35;;;;;;;10.27;83.40;99954.47;4851632;29;20292;-78
2022/11/17 06:37:26;;;;;;;52.90;32.22;;;;;;;10.36;83.74;99976.63;4852783;29;20505;-78
2022/11/17 06:39:53;;;;;;;64.75;35.08;;;;;;;10.23;83.67;99961.06;4853682;29;20755;-78
2022/11/17 06:43:02;;;;;;;61.75;33.08;;;;;;;10.23;83.51;99964.53;4867721;29;20334;-78
2022/11/17 06:45:19;;;;;;;52.10;31.90;;;;;;;10.52;84.22;99962.69;4856616;29;20170;-80
2022/11/17 06:47:53;;;;;;;59.33;32.60;;;;;;;10.51;83.90;99955.72;4861750;29;20223;-80
2022/11/17 06:50:24;;;;;;;55.38;31.85;;;;;;;10.55;83.80;99957.09;4870049;29;20466;-79
2022/11/17 06:52:55;;;;;;;57.88;32.47;;;;;;;10.58;83.46;99956.78;4891839;29;20048;-78
2022/11/17 06:55:22;;;;;;;53.15;32.90;;;;;;;10.20;83.58;99897.69;4874385;29;20549;-78
2022/11/17 06:58:05;;;;;;;54.25;32.13;;;;;;;10.58;83.76;99951.47;4881193;29;20052;-78
2022/11/17 07:00:33;;;;;;;63.22;34.38;;;;;;;10.65;83.72;99984.38;4874058;29;20062;-79
2022/11/17 07:03:04;;;;;;;61.95;32.10;;;;;;;10.62;83.00;99993.47;4860827;29;20067;-79
2022/11/17 07:05:38;;;;;;;62.30;34.05;;;;;;;10.62;83.91;99979.38;4863344;29;20557;-77
2022/11/17 07:08:07;;;;;;;59.40;30.80;;;;;;;10.24;84.53;99907.00;4866249;29;20051;-78
2022/11/17 07:10:41;;;;;;;61.25;32.42;;;;;;;10.62;84.16;99960.81;4851965;29;20059;-79
2022/11/17 07:13:15;;;;;;;61.67;32.03;;;;;;;10.74;83.97;99953.44;4836366;29;20055;-79
2022/11/17 07:15:42;;;;;;;53.80;30.55;;;;;;;10.95;83.24;99953.09;4851268;29;20327;-80
2022/11/17 07:18:14;;;;;;;50.90;28.23;;;;;;;10.77;83.69;99861.03;4859678;29;20051;-78
2022/11/17 07:20:50;;;;;;;55.25;29.88;;;;;;;11.56;82.60;99922.91;4884217;29;20597;-78
2022/11/17 07:23:17;;;;;;;63.00;32.38;;;;;;;11.54;81.20;99917.75;4873921;29;20362;-79
2022/11/17 07:25:52;;;;;;;57.33;31.95;;;;;;;11.55;81.16;99914.13;4870381;29;20467;-79
2022/11/17 07:28:19;;;;;;;63.65;30.88;;;;;;;11.51;80.98;99925.22;4878433;28;20051;-80
2022/11/17 07:30:47;;;;;;;64.88;31.05;;;;;;;11.42;81.09;99911.06;4869063;29;20558;-78
2022/11/17 07:33:29;;;;;;;66.47;29.77;;;;;;;11.44;81.22;99933.00;4864160;29;20166;-79
2022/11/17 07:36:15;;;;;;;59.88;31.73;;;;;;;11.38;81.24;99938.09;4865344;29;20454;-78
2022/11/17 07:38:50;;;;;;;60.95;31.88;;;;;;;11.41;81.21;99938.63;4858520;29;20063;-80
2022/11/17 07:41:27;;;;;;;64.53;31.08;;;;;;;11.30;81.80;99931.75;4865053;29;20157;-78
2022/11/17 07:44:03;;;;;;;56.90;31.63;;;;;;;11.35;81.71;99923.31;4872860;29;20519;-78
2022/11/17 07:46:40;;;;;;;63.92;32.60;;;;;;;11.43;82.58;99902.09;4875171;29;20136;-78
2022/11/17 07:49:15;;;;;;;63.33;31.92;;;;;;;11.63;81.27;99876.09;4863441;29;20059;-77
2022/11/17 07:51:56;;;;;;;58.20;30.10;;;;;;;11.67;80.05;99880.06;4854155;29;20279;-78
2022/11/17 07:54:30;;;;;;;56.50;29.52;;;;;;;11.86;80.06;99868.34;4890768;29;20070;-77
2022/11/17 07:57:09;;;;;;;57.80;30.58;;;;;;;11.95;79.61;99869.22;4881309;29;20169;-77
2022/11/17 07:59:41;;;;;;;62.90;30.75;;;;;;;11.97;79.30;99901.81;4859404;29;20134;-78
2022/11/17 08:02:10;;;;;;;50.17;27.10;;;;;;;11.91;79.43;99913.09;4858442;29;20051;-78
2022/11/17 08:04:45;;;;;;;58.72;30.15;;;;;;;11.85;79.40;99927.03;4856070;29;20055;-78
2022/11/17 08:07:17;;;;;;;54.95;29.88;;;;;;;11.83;79.01;99942.31;4864504;29;20504;-78
2022/11/17 08:09:50;;;;;;;71.15;33.25;;;;;;;11.65;80.41;99929.94;4877065;29;20461;-78
2022/11/17 08:12:23;;;;;;;93.97;38.38;;;;;;;11.62;80.22;99930.25;4842380;29;20273;-80
2022/11/17 08:14:57;;;;;;;81.28;35.25;;;;;;;11.80;80.31;99961.25;4878659;29;20053;-78
2022/11/17 08:17:24;;;;;;;62.83;30.33;;;;;;;11.62;79.74;99932.91;4868958;29;20473;-78
2022/11/17 08:19:51;;;;;;;57.67;29.40;;;;;;;11.54;79.30;99922.25;4867250;28;20548;-79
2022/11/17 08:22:23;;;;;;;53.83;28.50;;;;;;;11.86;79.79;99965.91;4852680;29;20058;-79
2022/11/17 08:24:57;;;;;;;57.88;29.83;;;;;;;11.60;79.63;99923.41;4849319;29;20248;-80
2022/11/17 08:27:27;;;;;;;46.53;26.67;;;;;;;11.83;79.54;99963.59;4854528;29;20056;-81
2022/11/17 08:29:54;;;;;;;49.35;27.30;;;;;;;11.70;79.18;99943.59;4849782;29;20386;-80
2022/11/17 08:32:25;;;;;;;52.97;28.98;;;;;;;11.76;79.31;99953.56;4829031;29;20058;-79
2022/11/17 08:34:59;;;;;;;55.78;30.05;;;;;;;11.73;78.71;99959.22;4833189;29;20056;-77
2022/11/17 08:37:29;;;;;;;56.67;30.63;;;;;;;11.41;78.65;99908.53;4843214;29;20478;-79
2022/11/17 08:40:00;;;;;;;57.28;32.05;;;;;;;11.72;79.16;99981.50;4838221;29;20299;-77
2022/11/17 08:42:35;;;;;;;56.00;31.30;;;;;;;11.60;79.68;99947.34;4848441;29;20051;-79
2022/11/17 08:45:14;;;;;;;53.40;30.58;;;;;;;11.86;79.88;99984.53;4831638;29;20236;-78
2022/11/17 08:47:46;;;;;;;49.78;27.08;;;;;;;11.91;79.81;99979.59;4831536;29;20055;-80
2022/11/17 08:50:21;;;;;;;55.13;29.67;;;;;;;12.06;78.39;99985.97;4834467;29;20059;-79
2022/11/17 08:52:56;;;;;;;62.78;32.47;;;;;;;12.04;78.14;99982.66;4839955;29;20596;-79
2022/11/17 08:55:28;;;;;;;53.83;29.80;;;;;;;12.06;78.42;99991.28;4851982;29;20144;-80
2022/11/17 08:58:01;;;;;;;58.45;31.67;;;;;;;11.30;77.75;99867.97;4833106;29;20044;-79
2022/11/17 09:00:39;;;;;;;59.13;32.70;;;;;;;12.11;77.52;99994.31;4855452;29;20044;-80
2022/11/17 09:03:14;;;;;;;73.28;34.72;;;;;;;12.10;78.15;100003.28;4849732;29;20070;-78
2022/11/17 09:05:50;;;;;;;56.38;32.05;;;;;;;11.92;78.09;99990.09;4862923;29;20083;-79
2022/11/17 09:08:27;;;;;;;66.05;33.50;;;;;;;11.69;78.14;99946.41;4833113;29;20439;-77
2022/11/17 09:11:22;;;;;;;69.75;34.28;;;;;;;12.08;78.16;100015.91;4839939;29;20497;-78
2022/11/17 09:13:56;;;;;;;61.83;33.95;;;;;;;11.85;78.34;99983.69;4847593;29;20354;-79
2022/11/17 09:16:36;;;;;;;63.45;34.38;;;;;;;12.01;78.30;100032.66;4861872;28;20539;-79
2022/11/17 09:19:09;;;;;;;60.67;34.35;;;;;;;11.89;78.27;100000.19;4859782;29;20471;-78
2022/11/17 09:21:36;;;;;;;62.53;34.83;;;;;;;12.02;78.35;100011.25;4844183;29;20161;-77
2022/11/17 09:24:08;;;;;;;63.95;35.30;;;;;;;12.21;77.91;100025.25;4857553;29;20048;-77
2022/11/17 09:26:44;;;;;;;64.80;34.88;;;;;;;12.17;76.99;100022.94;4862453;29;20364;-78
2022/11/17 09:29:29;;;;;;;61.63;34.28;;;;;;;12.23;77.00;100032.09;4854186;29;20117;-77
2022/11/17 09:32:00;;;;;;;64.20;34.85;;;;;;;12.19;77.49;100034.25;4841213;29;20055;-79
2022/11/17 09:34:38;;;;;;;72.47;36.03;;;;;;;12.17;77.41;100017.59;4846530;29;20958;-78
2022/11/17 09:37:05;;;;;;;52.30;31.17;;;;;;;12.43;77.53;100030.00;4857341;29;20650;-80
2022/11/17 09:39:39;;;;;;;71.45;37.97;;;;;;;12.30;76.67;100000.34;4871209;29;20095;-79
2022/11/17 09:42:17;;;;;;;64.80;35.70;;;;;;;12.36;77.16;99994.38;4869503;29;20509;-81
2022/11/17 09:45:10;;;;;;;63.97;35.80;;;;;;;12.55;75.94;100033.19;4857989;29;20051;-78
2022/11/17 09:48:04;;;;;;;58.30;33.88;;;;;;;12.59;76.59;100022.03;4868926;29;20402;-79
2022/11/17 09:50:58;;;;;;;61.70;35.67;;;;;;;12.78;76.29;100038.72;4879767;29;20062;-78
2022/11/17 09:53:42;;;;;;;56.40;32.20;;;;;;;12.54;75.62;99978.28;4872790;29;20501;-80
2022/11/17 09:56:11;;;;;;;64.60;36.40;;;;;;;12.95;75.59;100036.91;4872611;29;20047;-79
2022/11/17 09:58:47;;;;;;;67.20;37.67;;;;;;;12.89;75.39;100019.75;4875767;29;20054;-78
2022/11/17 10:01:22;;;;;;;56.53;34.83;;;;;;;12.85;74.90;99999.78;4878030;29;20366;-79
2022/11/17 10:04:00;;;;;;;52.13;31.58;;;;;;;13.02;74.63;100022.75;4881271;29;20052;-79
2022/11/17 10:06:31;;;;;;;71.47;41.20;;;;;;;12.43;74.46;99926.19;4875345;29;20344;-79
2022/11/17 10:09:21;;;;;;;69.33;42.33;;;;;;;12.94;74.57;100017.44;4892495;29;20054;-78
2022/11/17 10:12:06;;;;;;;77.85;42.10;;;;;;;12.87;74.99;100011.09;4868394;29;20155;-80
2022/11/17 10:14:41;;;;;;;69.10;39.33;;;;;;;12.72;74.85;99975.44;4879197;29;20159;-79
2022/11/17 10:17:20;;;;;;;57.08;35.30;;;;;;;12.86;75.04;99956.13;4876060;29;20059;-80
2022/11/17 10:19:55;;;;;;;59.40;36.88;;;;;;;13.18;73.82;99975.75;4859113;29;20701;-78
2022/11/17 10:22:37;;;;;;;54.28;34.10;;;;;;;13.29;74.03;99966.63;4861573;29;20059;-79
2022/11/17 10:25:21;;;;;;;45.97;30.00;;;;;;;13.03;73.72;99885.03;4864064;29;20070;-80
2022/11/17 10:27:56;;;;;;;60.00;35.30;;;;;;;13.67;73.56;99960.53;4859583;29;20410;-79
2022/11/17 10:30:23;;;;;;;43.45;27.50;;;;;;;14.06;72.57;99985.56;4858414;29;20374;-79
2022/11/17 10:33:08;;;;;;;65.65;37.75;;;;;;;13.92;71.74;99904.41;4858472;29;20056;-79
2022/11/17 10:36:07;;;;;;;60.33;36.40;;;;;;;14.02;70.39;99920.19;4865195;29;20541;-80
2022/11/17 10:38:46;;;;;;;63.15;39.08;;;;;;;14.10;70.48;99944.16;4857015;29;20071;-80
2022/11/17 10:42:01;;;;;;;60.17;38.58;;;;;;;14.41;69.96;99962.00;4859651;29;20084;-80
2022/11/17 10:44:43;;;;;;;55.97;35.03;;;;;;;14.31;70.75;99908.81;4857982;29;20453;-80
2022/11/17 10:47:34;;;;;;;64.43;37.88;;;;;;;14.94;67.82;99965.63;4855224;29;20145;-79
2022/11/17 10:50:27;;;;;;;63.28;39.28;;;;;;;14.87;67.93;99964.69;4872052;29;20671;-81
2022/11/17 10:53:25;;;;;;;52.22;33.50;;;;;;;14.85;68.74;99958.69;4866189;29;20134;-79
2022/11/17 10:56:29;;;;;;;53.15;34.42;;;;;;;14.96;68.70;99944.91;4861269;29;20101;-78
2022/11/17 10:59:42;;;;;;;46.80;28.83;;;;;;;15.10;68.38;99946.78;4865626;29;20243;-80
2022/11/17 11:02:34;;;;;;;52.35;35.00;;;;;;;14.77;67.73;99897.31;4842133;29;20146;-81
2022/11/17 11:05:16;;;;;;;57.03;34.25;;;;;;;14.99;67.84;99947.22;4857827;29;20445;-78
2022/11/17 11:07:47;;;;;;;40.08;27.05;;;;;;;14.96;68.49;99929.72;4854082;29;20134;-80
2022/11/17 11:10:31;;;;;;;62.22;37.33;;;;;;;15.08;68.01;99926.59;4857502;29;20134;-77
2022/11/17 11:13:20;;;;;;;66.13;39.67;;;;;;;14.35;68.70;99861.25;4844972;29;20329;-78
2022/11/17 11:15:47;;;;;;;38.13;28.00;;;;;;;14.69;69.06;99916.94;4893313;29;20410;-78
2022/11/17 11:18:17;;;;;;;41.55;28.60;;;;;;;14.71;69.34;99915.75;4893483;29;20817;-79
2022/11/17 11:21:03;;;;;;;65.00;39.30;;;;;;;14.73;69.37;99911.06;4895517;29;20054;-77
2022/11/17 11:23:42;;;;;;;58.17;37.35;;;;;;;14.65;69.32;99927.13;4894173;29;20810;-78
2022/11/17 11:26:11;;;;;;;48.83;33.38;;;;;;;14.50;69.78;99934.25;4889285;29;20425;-79
2022/11/17 11:28:59;;;;;;;45.72;32.35;;;;;;;14.42;70.46;99943.13;4910130;29;20063;-80
2022/11/17 11:31:31;;;;;;;48.28;31.88;;;;;;;15.07;68.66;99931.13;4911208;29;20520;-78
2022/11/17 11:34:09;;;;;;;58.70;34.78;;;;;;;15.05;68.64;99927.78;4910629;29;20549;-79
2022/11/17 11:36:43;;;;;;;43.53;29.08;;;;;;;15.08;68.45;99943.47;4908532;29;20051;-78
2022/11/17 11:39:29;;;;;;;41.17;28.15;;;;;;;15.18;68.31;99932.50;4910215;28;20538;-79
2022/11/17 11:42:33;;;;;;;38.58;26.02;;;;;;;15.38;67.48;99927.44;4887998;29;20172;-78
2022/11/17 11:45:51;;;;;;;52.83;35.05;;;;;;;15.10;67.83;99911.22;4893115;29;20052;-78
2022/11/17 11:48:32;;;;;;;37.70;26.02;;;;;;;15.30;66.81;99888.25;4874674;29;20637;-80
2022/11/17 11:51:10;;;;;;;36.63;25.23;;;;;;;15.57;67.20;99924.22;4891312;29;20131;-78
2022/11/17 11:53:54;;;;;;;44.30;28.88;;;;;;;15.48;66.69;99911.13;4891463;29;20463;-79
2022/11/17 11:56:34;;;;;;;55.08;36.10;;;;;;;15.29;67.66;99926.72;4891607;29;20051;-78
2022/11/17 11:59:05;;;;;;;43.60;28.58;;;;;;;15.40;67.96;99925.41;4891399;29;20478;-80
2022/11/17 12:02:01;;;;;;;35.93;26.10;;;;;;;15.44;67.34;99925.88;4892997;29;20062;-80
2022/11/17 12:04:46;;;;;;;36.20;25.60;;;;;;;15.48;66.20;99873.66;4899285;29;20547;-78
2022/11/17 12:07:22;;;;;;;36.10;24.58;;;;;;;15.94;65.41;99917.09;4892707;29;20771;-78
2022/11/17 12:10:30;;;;;;;45.80;30.83;;;;;;;15.92;65.42;99905.75;4895494;29;20055;-79
2022/11/17 12:12:58;;;;;;;56.92;34.70;;;;;;;15.00;65.37;99780.50;4871269;29;20048;-78
2022/11/17 12:15:25;;;;;;;44.88;28.23;;;;;;;15.75;66.02;99904.28;4892140;29;20916;-79
2022/11/17 12:17:55;;;;;;;54.35;36.08;;;;;;;15.34;66.40;99878.84;4893925;29;20054;-78
2022/11/17 12:20:37;;;;;;;41.53;28.10;;;;;;;15.34;67.00;99916.31;4893127;29;20083;-79
2022/11/17 12:23:36;;;;;;;39.58;27.42;;;;;;;15.34;67.50;99907.41;4888879;29;20047;-80
2022/11/17 12:26:04;;;;;;;46.85;29.77;;;;;;;15.10;67.06;99863.09;4892631;29;20078;-79
2022/11/17 12:28:35;;;;;;;51.75;34.22;;;;;;;15.27;67.32;99910.03;4894925;29;20048;-79